Terminal Aerodrome Forecast
Issued by NWS

Home | Current Version | Previous Version | Text Only | Print | Product List | Glossary On
Versions: 1 2 3 4 5 6 7 8 9 10 11 12 13 14 15
000
FTUS45 KABQ 291700
TAFFMN
TAF
KFMN 291722Z 2918/3018 VRB05KT P6SM SKC
     FM292100 28010G18KT P6SM SKC
     FM300100 VRB05KT P6SM SKC=

USA.gov is the U.S. government's official web portal to all federal, state and local government web resources and services.